sensor_id;sensor_type;location;lat;lon;timestamp;P1;durP1;ratioP1;P2;durP2;ratioP2
29848;SDS011;16728;50.832;5.590;2023-01-09T00:05:51;5.57;;;0.77;;
29848;SDS011;16728;50.832;5.590;2023-01-09T00:09:34;0.70;;;0.70;;
29848;SDS011;16728;50.832;5.590;2023-01-09T00:22:04;1.25;;;0.70;;
29848;SDS011;16728;50.832;5.590;2023-01-09T00:25:42;1.70;;;0.60;;
29848;SDS011;16728;50.832;5.590;2023-01-09T00:33:06;0.73;;;0.70;;
29848;SDS011;16728;50.832;5.590;2023-01-09T00:36:44;1.75;;;0.85;;
29848;SDS011;16728;50.832;5.590;2023-01-09T00:43:20;0.98;;;0.70;;
29848;SDS011;16728;50.832;5.590;2023-01-09T00:46:26;0.80;;;0.60;;
29848;SDS011;16728;50.832;5.590;2023-01-09T00:49:34;1.58;;;0.50;;
29848;SDS011;16728;50.832;5.590;2023-01-09T00:56:32;2.22;;;0.63;;
29848;SDS011;16728;50.832;5.590;2023-01-09T00:59:57;0.60;;;0.60;;
29848;SDS011;16728;50.832;5.590;2023-01-09T01:03:23;1.58;;;0.70;;
29848;SDS011;16728;50.832;5.590;2023-01-09T01:06:43;1.58;;;0.80;;
29848;SDS011;16728;50.832;5.590;2023-01-09T01:10:18;2.10;;;0.50;;
29848;SDS011;16728;50.832;5.590;2023-01-09T01:13:52;1.00;;;0.50;;
29848;SDS011;16728;50.832;5.590;2023-01-09T01:17:24;0.60;;;0.60;;
29848;SDS011;16728;50.832;5.590;2023-01-09T01:20:42;0.50;;;0.50;;
29848;SDS011;16728;50.832;5.590;2023-01-09T01:27:42;1.95;;;0.88;;
29848;SDS011;16728;50.832;5.590;2023-01-09T01:31:46;0.80;;;0.68;;
29848;SDS011;16728;50.832;5.590;2023-01-09T01:35:56;1.70;;;0.85;;
29848;SDS011;16728;50.832;5.590;2023-01-09T01:51:27;5.60;;;1.27;;
29848;SDS011;16728;50.832;5.590;2023-01-09T01:54:53;4.60;;;1.10;;
29848;SDS011;16728;50.832;5.590;2023-01-09T01:58:21;3.30;;;1.50;;
29848;SDS011;16728;50.832;5.590;2023-01-09T02:01:46;3.83;;;1.45;;
29848;SDS011;16728;50.832;5.590;2023-01-09T02:05:16;2.38;;;1.33;;
29848;SDS011;16728;50.832;5.590;2023-01-09T02:30:50;3.85;;;1.00;;
29848;SDS011;16728;50.832;5.590;2023-01-09T02:42:45;2.42;;;1.02;;
29848;SDS011;16728;50.832;5.590;2023-01-09T02:50:14;4.07;;;1.25;;
29848;SDS011;16728;50.832;5.590;2023-01-09T02:57:07;3.53;;;1.40;;
29848;SDS011;16728;50.832;5.590;2023-01-09T03:04:07;5.22;;;1.13;;
29848;SDS011;16728;50.832;5.590;2023-01-09T03:07:54;5.85;;;1.30;;
29848;SDS011;16728;50.832;5.590;2023-01-09T03:11:10;5.28;;;1.27;;
29848;SDS011;16728;50.832;5.590;2023-01-09T03:14:16;3.25;;;1.15;;
29848;SDS011;16728;50.832;5.590;2023-01-09T03:17:47;9.82;;;1.55;;
29848;SDS011;16728;50.832;5.590;2023-01-09T03:20:55;4.78;;;1.52;;
29848;SDS011;16728;50.832;5.590;2023-01-09T03:24:14;3.53;;;1.35;;
29848;SDS011;16728;50.832;5.590;2023-01-09T03:27:18;7.00;;;1.25;;
29848;SDS011;16728;50.832;5.590;2023-01-09T03:30:22;5.28;;;1.33;;
29848;SDS011;16728;50.832;5.590;2023-01-09T03:33:34;4.38;;;1.10;;
29848;SDS011;16728;50.832;5.590;2023-01-09T03:36:47;3.70;;;0.95;;
29848;SDS011;16728;50.832;5.590;2023-01-09T03:40:21;5.45;;;1.30;;
29848;SDS011;16728;50.832;5.590;2023-01-09T03:43:38;3.42;;;1.17;;
29848;SDS011;16728;50.832;5.590;2023-01-09T03:47:23;8.65;;;1.45;;
29848;SDS011;16728;50.832;5.590;2023-01-09T03:50:55;5.57;;;1.42;;
29848;SDS011;16728;50.832;5.590;2023-01-09T03:54:39;5.35;;;1.08;;
29848;SDS011;16728;50.832;5.590;2023-01-09T03:57:46;7.05;;;1.40;;
29848;SDS011;16728;50.832;5.590;2023-01-09T04:00:59;4.53;;;1.00;;
29848;SDS011;16728;50.832;5.590;2023-01-09T04:04:08;5.35;;;1.23;;
29848;SDS011;16728;50.832;5.590;2023-01-09T04:07:28;4.30;;;1.50;;
29848;SDS011;16728;50.832;5.590;2023-01-09T04:10:33;5.28;;;1.50;;
29848;SDS011;16728;50.832;5.590;2023-01-09T04:13:46;3.92;;;1.10;;
29848;SDS011;16728;50.832;5.590;2023-01-09T04:16:48;3.88;;;1.25;;
29848;SDS011;16728;50.832;5.590;2023-01-09T04:19:53;4.47;;;1.10;;
29848;SDS011;16728;50.832;5.590;2023-01-09T04:23:04;4.78;;;1.65;;
29848;SDS011;16728;50.832;5.590;2023-01-09T04:26:09;3.20;;;1.17;;
29848;SDS011;16728;50.832;5.590;2023-01-09T04:29:14;5.40;;;1.30;;
29848;SDS011;16728;50.832;5.590;2023-01-09T04:32:22;4.63;;;1.20;;
29848;SDS011;16728;50.832;5.590;2023-01-09T04:35:56;7.25;;;1.42;;
29848;SDS011;16728;50.832;5.590;2023-01-09T04:39:07;5.53;;;1.50;;
29848;SDS011;16728;50.832;5.590;2023-01-09T04:46:13;2.90;;;1.20;;
29848;SDS011;16728;50.832;5.590;2023-01-09T04:49:39;9.27;;;1.40;;
29848;SDS011;16728;50.832;5.590;2023-01-09T04:52:50;4.78;;;1.23;;
29848;SDS011;16728;50.832;5.590;2023-01-09T04:56:07;5.93;;;1.40;;
29848;SDS011;16728;50.832;5.590;2023-01-09T04:59:10;5.47;;;1.20;;
29848;SDS011;16728;50.832;5.590;2023-01-09T05:02:38;5.07;;;1.40;;
29848;SDS011;16728;50.832;5.590;2023-01-09T05:10:41;8.25;;;1.30;;
29848;SDS011;16728;50.832;5.590;2023-01-09T05:26:41;6.25;;;1.48;;
29848;SDS011;16728;50.832;5.590;2023-01-09T05:29:43;7.07;;;1.58;;
29848;SDS011;16728;50.832;5.590;2023-01-09T05:32:45;5.60;;;1.63;;
29848;SDS011;16728;50.832;5.590;2023-01-09T05:35:47;5.63;;;1.35;;
29848;SDS011;16728;50.832;5.590;2023-01-09T05:38:49;7.80;;;1.65;;
29848;SDS011;16728;50.832;5.590;2023-01-09T05:41:51;4.93;;;1.10;;
29848;SDS011;16728;50.832;5.590;2023-01-09T05:44:53;9.35;;;1.73;;
29848;SDS011;16728;50.832;5.590;2023-01-09T05:47:55;7.10;;;1.83;;
29848;SDS011;16728;50.832;5.590;2023-01-09T05:52:02;6.03;;;1.40;;
29848;SDS011;16728;50.832;5.590;2023-01-09T05:55:37;5.32;;;1.33;;
29848;SDS011;16728;50.832;5.590;2023-01-09T06:11:33;10.32;;;1.65;;
29848;SDS011;16728;50.832;5.590;2023-01-09T06:15:12;7.63;;;1.83;;
29848;SDS011;16728;50.832;5.590;2023-01-09T06:18:30;6.90;;;2.08;;
29848;SDS011;16728;50.832;5.590;2023-01-09T06:22:07;9.77;;;2.00;;
29848;SDS011;16728;50.832;5.590;2023-01-09T06:25:40;6.85;;;1.70;;
29848;SDS011;16728;50.832;5.590;2023-01-09T06:29:02;7.10;;;1.83;;
29848;SDS011;16728;50.832;5.590;2023-01-09T06:32:37;6.85;;;2.22;;
29848;SDS011;16728;50.832;5.590;2023-01-09T06:40:43;7.35;;;1.75;;
29848;SDS011;16728;50.832;5.590;2023-01-09T06:45:01;6.05;;;1.55;;
29848;SDS011;16728;50.832;5.590;2023-01-09T06:52:37;6.65;;;1.48;;
29848;SDS011;16728;50.832;5.590;2023-01-09T06:55:44;8.00;;;1.63;;
29848;SDS011;16728;50.832;5.590;2023-01-09T06:58:48;5.25;;;1.65;;
29848;SDS011;16728;50.832;5.590;2023-01-09T07:01:57;5.03;;;1.67;;
29848;SDS011;16728;50.832;5.590;2023-01-09T07:05:08;5.05;;;1.25;;
29848;SDS011;16728;50.832;5.590;2023-01-09T07:08:11;6.93;;;1.70;;
29848;SDS011;16728;50.832;5.590;2023-01-09T07:11:14;6.30;;;1.83;;
29848;SDS011;16728;50.832;5.590;2023-01-09T07:14:21;8.45;;;1.92;;
29848;SDS011;16728;50.832;5.590;2023-01-09T07:17:22;7.13;;;1.30;;
29848;SDS011;16728;50.832;5.590;2023-01-09T07:20:26;9.43;;;2.08;;
29848;SDS011;16728;50.832;5.590;2023-01-09T07:23:38;5.15;;;1.55;;
29848;SDS011;16728;50.832;5.590;2023-01-09T07:27:16;6.88;;;1.38;;
29848;SDS011;16728;50.832;5.590;2023-01-09T07:30:29;7.22;;;1.40;;
29848;SDS011;16728;50.832;5.590;2023-01-09T07:33:42;7.47;;;1.30;;
29848;SDS011;16728;50.832;5.590;2023-01-09T07:36:47;8.68;;;1.70;;
29848;SDS011;16728;50.832;5.590;2023-01-09T07:39:51;7.82;;;1.60;;
29848;SDS011;16728;50.832;5.590;2023-01-09T07:42:57;5.47;;;1.38;;
29848;SDS011;16728;50.832;5.590;2023-01-09T07:46:00;9.00;;;2.97;;
29848;SDS011;16728;50.832;5.590;2023-01-09T07:49:05;5.35;;;1.60;;
29848;SDS011;16728;50.832;5.590;2023-01-09T07:52:07;7.40;;;1.88;;
29848;SDS011;16728;50.832;5.590;2023-01-09T07:55:10;10.77;;;1.80;;
29848;SDS011;16728;50.832;5.590;2023-01-09T07:58:12;6.05;;;1.08;;
29848;SDS011;16728;50.832;5.590;2023-01-09T08:01:14;5.57;;;1.38;;
29848;SDS011;16728;50.832;5.590;2023-01-09T08:04:16;6.30;;;1.50;;
29848;SDS011;16728;50.832;5.590;2023-01-09T08:07:19;5.82;;;1.50;;
29848;SDS011;16728;50.832;5.590;2023-01-09T08:10:21;6.22;;;1.17;;
29848;SDS011;16728;50.832;5.590;2023-01-09T08:13:42;7.60;;;1.52;;
29848;SDS011;16728;50.832;5.590;2023-01-09T08:16:55;3.30;;;1.20;;
29848;SDS011;16728;50.832;5.590;2023-01-09T08:20:40;6.38;;;1.58;;
29848;SDS011;16728;50.832;5.590;2023-01-09T08:23:54;7.63;;;1.52;;
29848;SDS011;16728;50.832;5.590;2023-01-09T08:26:58;5.65;;;1.50;;
29848;SDS011;16728;50.832;5.590;2023-01-09T08:30:06;6.32;;;1.42;;
29848;SDS011;16728;50.832;5.590;2023-01-09T08:33:10;7.43;;;1.50;;
29848;SDS011;16728;50.832;5.590;2023-01-09T08:36:18;6.28;;;1.70;;
29848;SDS011;16728;50.832;5.590;2023-01-09T08:39:28;7.38;;;1.42;;
29848;SDS011;16728;50.832;5.590;2023-01-09T08:42:33;5.97;;;1.42;;
29848;SDS011;16728;50.832;5.590;2023-01-09T08:45:56;5.05;;;1.00;;
29848;SDS011;16728;50.832;5.590;2023-01-09T08:49:19;5.78;;;1.50;;
29848;SDS011;16728;50.832;5.590;2023-01-09T08:52:22;4.10;;;1.13;;
29848;SDS011;16728;50.832;5.590;2023-01-09T08:55:35;5.07;;;1.45;;
29848;SDS011;16728;50.832;5.590;2023-01-09T08:58:46;7.03;;;2.10;;
29848;SDS011;16728;50.832;5.590;2023-01-09T09:01:54;6.55;;;1.15;;
29848;SDS011;16728;50.832;5.590;2023-01-09T09:05:05;8.10;;;1.38;;
29848;SDS011;16728;50.832;5.590;2023-01-09T09:08:16;6.25;;;1.40;;
29848;SDS011;16728;50.832;5.590;2023-01-09T09:11:33;6.00;;;1.15;;
29848;SDS011;16728;50.832;5.590;2023-01-09T09:14:40;5.63;;;1.50;;
29848;SDS011;16728;50.832;5.590;2023-01-09T09:18:31;3.95;;;1.15;;
29848;SDS011;16728;50.832;5.590;2023-01-09T09:22:02;4.78;;;1.40;;
29848;SDS011;16728;50.832;5.590;2023-01-09T09:25:21;9.02;;;1.35;;
29848;SDS011;16728;50.832;5.590;2023-01-09T09:28:37;6.38;;;1.40;;
29848;SDS011;16728;50.832;5.590;2023-01-09T09:33:18;7.50;;;1.33;;
29848;SDS011;16728;50.832;5.590;2023-01-09T09:36:51;7.38;;;1.48;;
29848;SDS011;16728;50.832;5.590;2023-01-09T09:39:55;4.85;;;1.40;;
29848;SDS011;16728;50.832;5.590;2023-01-09T09:54:18;4.55;;;1.58;;
29848;SDS011;16728;50.832;5.590;2023-01-09T09:57:53;2.88;;;0.75;;
29848;SDS011;16728;50.832;5.590;2023-01-09T10:01:13;3.17;;;0.80;;
29848;SDS011;16728;50.832;5.590;2023-01-09T10:04:32;4.30;;;0.82;;
29848;SDS011;16728;50.832;5.590;2023-01-09T10:08:03;1.73;;;0.88;;
29848;SDS011;16728;50.832;5.590;2023-01-09T10:20:33;2.70;;;0.70;;
29848;SDS011;16728;50.832;5.590;2023-01-09T10:24:39;1.15;;;0.70;;
29848;SDS011;16728;50.832;5.590;2023-01-09T10:31:39;2.85;;;0.75;;
29848;SDS011;16728;50.832;5.590;2023-01-09T10:39:02;1.10;;;0.63;;
29848;SDS011;16728;50.832;5.590;2023-01-09T10:43:24;0.95;;;0.70;;
29848;SDS011;16728;50.832;5.590;2023-01-09T10:46:55;1.60;;;0.95;;
29848;SDS011;16728;50.832;5.590;2023-01-09T10:50:34;1.25;;;0.75;;
29848;SDS011;16728;50.832;5.590;2023-01-09T10:54:08;3.33;;;0.82;;
29848;SDS011;16728;50.832;5.590;2023-01-09T10:58:02;1.88;;;0.70;;
29848;SDS011;16728;50.832;5.590;2023-01-09T11:01:18;2.03;;;0.73;;
29848;SDS011;16728;50.832;5.590;2023-01-09T11:04:45;0.98;;;0.70;;
29848;SDS011;16728;50.832;5.590;2023-01-09T11:07:52;1.90;;;0.63;;
29848;SDS011;16728;50.832;5.590;2023-01-09T11:11:33;1.17;;;0.77;;
29848;SDS011;16728;50.832;5.590;2023-01-09T11:14:50;1.05;;;0.70;;
29848;SDS011;16728;50.832;5.590;2023-01-09T11:18:36;1.42;;;0.77;;
29848;SDS011;16728;50.832;5.590;2023-01-09T11:22:16;1.42;;;0.80;;
29848;SDS011;16728;50.832;5.590;2023-01-09T11:25:39;1.65;;;0.80;;
29848;SDS011;16728;50.832;5.590;2023-01-09T11:29:23;1.88;;;1.05;;
29848;SDS011;16728;50.832;5.590;2023-01-09T11:32:31;2.83;;;1.55;;
29848;SDS011;16728;50.832;5.590;2023-01-09T11:35:56;3.20;;;1.30;;
29848;SDS011;16728;50.832;5.590;2023-01-09T11:39:30;0.77;;;0.75;;
29848;SDS011;16728;50.832;5.590;2023-01-09T11:43:10;1.45;;;1.10;;
29848;SDS011;16728;50.832;5.590;2023-01-09T11:50:31;3.33;;;1.00;;
29848;SDS011;16728;50.832;5.590;2023-01-09T11:58:58;1.45;;;0.80;;
29848;SDS011;16728;50.832;5.590;2023-01-09T12:40:56;5.28;;;3.55;;
29848;SDS011;16728;50.832;5.590;2023-01-09T12:52:06;2.75;;;1.05;;
29848;SDS011;16728;50.832;5.590;2023-01-09T13:02:22;1.85;;;0.90;;
29848;SDS011;16728;50.832;5.590;2023-01-09T13:05:56;3.88;;;1.15;;
29848;SDS011;16728;50.832;5.590;2023-01-09T13:09:31;1.80;;;0.80;;
29848;SDS011;16728;50.832;5.590;2023-01-09T13:13:21;6.47;;;1.58;;
29848;SDS011;16728;50.832;5.590;2023-01-09T13:16:43;5.72;;;1.20;;
29848;SDS011;16728;50.832;5.590;2023-01-09T13:20:37;1.38;;;1.27;;
29848;SDS011;16728;50.832;5.590;2023-01-09T13:24:17;3.67;;;0.95;;
29848;SDS011;16728;50.832;5.590;2023-01-09T13:28:11;1.75;;;1.20;;
29848;SDS011;16728;50.832;5.590;2023-01-09T13:44:23;2.25;;;1.65;;
29848;SDS011;16728;50.832;5.590;2023-01-09T13:48:28;5.60;;;2.25;;
29848;SDS011;16728;50.832;5.590;2023-01-09T13:59:24;7.70;;;1.50;;
29848;SDS011;16728;50.832;5.590;2023-01-09T14:11:03;3.72;;;1.55;;
29848;SDS011;16728;50.832;5.590;2023-01-09T14:19:51;6.70;;;1.70;;
29848;SDS011;16728;50.832;5.590;2023-01-09T14:23:05;4.50;;;1.40;;
29848;SDS011;16728;50.832;5.590;2023-01-09T14:26:58;4.90;;;1.35;;
29848;SDS011;16728;50.832;5.590;2023-01-09T14:35:09;4.95;;;1.55;;
29848;SDS011;16728;50.832;5.590;2023-01-09T14:38:45;8.15;;;1.80;;
29848;SDS011;16728;50.832;5.590;2023-01-09T14:42:37;7.88;;;2.00;;
29848;SDS011;16728;50.832;5.590;2023-01-09T14:57:47;5.15;;;1.20;;
29848;SDS011;16728;50.832;5.590;2023-01-09T15:01:30;6.03;;;1.45;;
29848;SDS011;16728;50.832;5.590;2023-01-09T15:05:16;3.35;;;1.73;;
29848;SDS011;16728;50.832;5.590;2023-01-09T15:08:51;5.55;;;1.80;;
29848;SDS011;16728;50.832;5.590;2023-01-09T15:17:31;6.00;;;1.90;;
29848;SDS011;16728;50.832;5.590;2023-01-09T15:25:11;6.32;;;2.25;;
29848;SDS011;16728;50.832;5.590;2023-01-09T15:28:43;3.95;;;1.88;;
29848;SDS011;16728;50.832;5.590;2023-01-09T15:31:45;5.97;;;1.88;;
29848;SDS011;16728;50.832;5.590;2023-01-09T15:34:55;6.68;;;2.45;;
29848;SDS011;16728;50.832;5.590;2023-01-09T15:38:03;6.35;;;2.47;;
29848;SDS011;16728;50.832;5.590;2023-01-09T15:41:10;4.13;;;1.73;;
29848;SDS011;16728;50.832;5.590;2023-01-09T15:44:36;5.57;;;1.75;;
29848;SDS011;16728;50.832;5.590;2023-01-09T15:47:41;5.80;;;1.95;;
29848;SDS011;16728;50.832;5.590;2023-01-09T15:59:25;6.55;;;2.00;;
29848;SDS011;16728;50.832;5.590;2023-01-09T16:03:08;8.85;;;2.25;;
29848;SDS011;16728;50.832;5.590;2023-01-09T16:06:51;8.05;;;2.28;;
29848;SDS011;16728;50.832;5.590;2023-01-09T16:11:06;6.93;;;2.13;;
29848;SDS011;16728;50.832;5.590;2023-01-09T16:14:49;6.63;;;1.80;;
29848;SDS011;16728;50.832;5.590;2023-01-09T16:21:55;7.82;;;2.08;;
29848;SDS011;16728;50.832;5.590;2023-01-09T16:33:43;7.20;;;2.15;;
29848;SDS011;16728;50.832;5.590;2023-01-09T16:37:13;8.40;;;2.10;;
29848;SDS011;16728;50.832;5.590;2023-01-09T16:40:41;4.75;;;1.67;;
29848;SDS011;16728;50.832;5.590;2023-01-09T16:48:46;5.93;;;2.03;;
29848;SDS011;16728;50.832;5.590;2023-01-09T16:53:00;8.25;;;2.00;;
29848;SDS011;16728;50.832;5.590;2023-01-09T16:59:57;5.32;;;1.88;;
29848;SDS011;16728;50.832;5.590;2023-01-09T17:14:30;8.18;;;2.67;;
29848;SDS011;16728;50.832;5.590;2023-01-09T17:22:29;8.10;;;2.28;;
29848;SDS011;16728;50.832;5.590;2023-01-09T17:26:03;6.65;;;2.15;;
29848;SDS011;16728;50.832;5.590;2023-01-09T17:29:41;7.97;;;1.80;;
29848;SDS011;16728;50.832;5.590;2023-01-09T17:32:58;6.80;;;1.95;;
29848;SDS011;16728;50.832;5.590;2023-01-09T17:36:26;6.28;;;2.08;;
29848;SDS011;16728;50.832;5.590;2023-01-09T17:39:32;2.97;;;1.60;;
29848;SDS011;16728;50.832;5.590;2023-01-09T17:42:39;5.35;;;2.20;;
29848;SDS011;16728;50.832;5.590;2023-01-09T17:45:47;5.68;;;2.15;;
29848;SDS011;16728;50.832;5.590;2023-01-09T17:48:52;4.53;;;2.25;;
29848;SDS011;16728;50.832;5.590;2023-01-09T17:52:14;3.25;;;1.80;;
29848;SDS011;16728;50.832;5.590;2023-01-09T17:55:32;4.47;;;2.15;;
29848;SDS011;16728;50.832;5.590;2023-01-09T17:58:37;4.28;;;2.88;;
29848;SDS011;16728;50.832;5.590;2023-01-09T18:06:18;6.07;;;2.97;;
29848;SDS011;16728;50.832;5.590;2023-01-09T18:17:14;7.40;;;2.65;;
29848;SDS011;16728;50.832;5.590;2023-01-09T18:20:24;9.02;;;2.85;;
29848;SDS011;16728;50.832;5.590;2023-01-09T18:28:41;5.65;;;2.60;;
29848;SDS011;16728;50.832;5.590;2023-01-09T18:31:43;11.82;;;3.30;;
29848;SDS011;16728;50.832;5.590;2023-01-09T18:34:46;5.00;;;3.00;;
29848;SDS011;16728;50.832;5.590;2023-01-09T18:37:51;4.70;;;3.53;;
29848;SDS011;16728;50.832;5.590;2023-01-09T19:11:06;4.47;;;2.55;;
29848;SDS011;16728;50.832;5.590;2023-01-09T19:14:09;4.82;;;2.95;;
29848;SDS011;16728;50.832;5.590;2023-01-09T19:17:15;4.07;;;2.65;;
29848;SDS011;16728;50.832;5.590;2023-01-09T19:20:23;7.22;;;2.92;;
29848;SDS011;16728;50.832;5.590;2023-01-09T19:23:25;4.78;;;2.28;;
29848;SDS011;16728;50.832;5.590;2023-01-09T19:26:36;4.60;;;2.50;;
29848;SDS011;16728;50.832;5.590;2023-01-09T19:37:54;4.28;;;2.55;;
29848;SDS011;16728;50.832;5.590;2023-01-09T19:40:56;2.53;;;1.90;;
29848;SDS011;16728;50.832;5.590;2023-01-09T19:44:09;3.20;;;2.17;;
29848;SDS011;16728;50.832;5.590;2023-01-09T19:47:11;7.43;;;2.60;;
29848;SDS011;16728;50.832;5.590;2023-01-09T19:50:14;4.03;;;2.20;;
29848;SDS011;16728;50.832;5.590;2023-01-09T19:53:17;3.92;;;2.30;;
29848;SDS011;16728;50.832;5.590;2023-01-09T20:02:10;4.72;;;2.20;;
29848;SDS011;16728;50.832;5.590;2023-01-09T20:06:01;3.75;;;2.50;;
29848;SDS011;16728;50.832;5.590;2023-01-09T20:09:07;3.35;;;2.20;;
29848;SDS011;16728;50.832;5.590;2023-01-09T20:12:12;3.58;;;2.55;;
29848;SDS011;16728;50.832;5.590;2023-01-09T20:15:19;6.82;;;4.35;;
29848;SDS011;16728;50.832;5.590;2023-01-09T20:18:37;5.85;;;2.63;;
29848;SDS011;16728;50.832;5.590;2023-01-09T20:22:04;9.57;;;3.08;;
29848;SDS011;16728;50.832;5.590;2023-01-09T20:25:35;7.68;;;2.67;;
29848;SDS011;16728;50.832;5.590;2023-01-09T20:28:38;6.68;;;3.03;;
29848;SDS011;16728;50.832;5.590;2023-01-09T20:31:57;6.13;;;2.63;;
29848;SDS011;16728;50.832;5.590;2023-01-09T20:38:32;5.03;;;2.35;;
29848;SDS011;16728;50.832;5.590;2023-01-09T20:41:41;5.32;;;2.80;;
29848;SDS011;16728;50.832;5.590;2023-01-09T20:44:50;6.57;;;3.00;;
29848;SDS011;16728;50.832;5.590;2023-01-09T20:48:07;6.28;;;3.00;;
29848;SDS011;16728;50.832;5.590;2023-01-09T20:51:42;4.25;;;2.50;;
29848;SDS011;16728;50.832;5.590;2023-01-09T20:55:14;6.55;;;2.58;;
29848;SDS011;16728;50.832;5.590;2023-01-09T20:58:43;6.32;;;2.80;;
29848;SDS011;16728;50.832;5.590;2023-01-09T21:02:27;6.53;;;3.08;;
29848;SDS011;16728;50.832;5.590;2023-01-09T21:11:05;6.80;;;3.17;;
29848;SDS011;16728;50.832;5.590;2023-01-09T21:14:52;8.43;;;3.58;;
29848;SDS011;16728;50.832;5.590;2023-01-09T21:18:31;8.88;;;3.17;;
29848;SDS011;16728;50.832;5.590;2023-01-09T21:22:05;7.35;;;3.10;;
29848;SDS011;16728;50.832;5.590;2023-01-09T21:25:14;6.38;;;2.95;;
29848;SDS011;16728;50.832;5.590;2023-01-09T21:28:19;8.40;;;2.67;;
29848;SDS011;16728;50.832;5.590;2023-01-09T21:31:51;5.45;;;2.15;;
29848;SDS011;16728;50.832;5.590;2023-01-09T21:35:22;4.50;;;2.35;;
29848;SDS011;16728;50.832;5.590;2023-01-09T21:38:38;5.63;;;2.17;;
29848;SDS011;16728;50.832;5.590;2023-01-09T21:42:11;6.13;;;2.47;;
29848;SDS011;16728;50.832;5.590;2023-01-09T21:53:08;9.30;;;2.40;;
29848;SDS011;16728;50.832;5.590;2023-01-09T21:56:40;7.65;;;2.38;;
29848;SDS011;16728;50.832;5.590;2023-01-09T21:59:51;5.65;;;2.17;;
29848;SDS011;16728;50.832;5.590;2023-01-09T22:03:04;6.30;;;2.15;;
29848;SDS011;16728;50.832;5.590;2023-01-09T22:06:22;4.85;;;2.20;;
29848;SDS011;16728;50.832;5.590;2023-01-09T22:09:26;8.20;;;2.15;;
29848;SDS011;16728;50.832;5.590;2023-01-09T22:12:33;6.00;;;2.33;;
29848;SDS011;16728;50.832;5.590;2023-01-09T22:15:40;6.38;;;2.72;;
29848;SDS011;16728;50.832;5.590;2023-01-09T22:18:50;7.85;;;2.08;;
29848;SDS011;16728;50.832;5.590;2023-01-09T22:22:30;5.85;;;2.53;;
29848;SDS011;16728;50.832;5.590;2023-01-09T22:25:41;6.78;;;2.20;;
29848;SDS011;16728;50.832;5.590;2023-01-09T22:28:50;8.88;;;2.90;;
29848;SDS011;16728;50.832;5.590;2023-01-09T22:31:52;5.32;;;2.20;;
29848;SDS011;16728;50.832;5.590;2023-01-09T22:34:54;7.70;;;2.60;;
29848;SDS011;16728;50.832;5.590;2023-01-09T22:38:05;6.57;;;2.35;;
29848;SDS011;16728;50.832;5.590;2023-01-09T22:41:20;5.65;;;2.00;;
29848;SDS011;16728;50.832;5.590;2023-01-09T22:44:30;6.25;;;2.70;;
29848;SDS011;16728;50.832;5.590;2023-01-09T22:47:32;4.65;;;2.05;;
29848;SDS011;16728;50.832;5.590;2023-01-09T22:50:36;6.53;;;2.70;;
29848;SDS011;16728;50.832;5.590;2023-01-09T22:53:38;4.90;;;2.10;;
29848;SDS011;16728;50.832;5.590;2023-01-09T22:56:41;9.30;;;2.40;;
29848;SDS011;16728;50.832;5.590;2023-01-09T22:59:46;7.93;;;2.30;;
29848;SDS011;16728;50.832;5.590;2023-01-09T23:03:14;7.75;;;2.70;;
29848;SDS011;16728;50.832;5.590;2023-01-09T23:06:20;9.30;;;2.70;;
29848;SDS011;16728;50.832;5.590;2023-01-09T23:09:23;7.75;;;2.65;;
29848;SDS011;16728;50.832;5.590;2023-01-09T23:12:26;10.80;;;2.72;;
29848;SDS011;16728;50.832;5.590;2023-01-09T23:15:28;10.65;;;2.83;;
29848;SDS011;16728;50.832;5.590;2023-01-09T23:21:34;8.07;;;2.85;;
29848;SDS011;16728;50.832;5.590;2023-01-09T23:24:36;8.77;;;2.90;;
29848;SDS011;16728;50.832;5.590;2023-01-09T23:27:38;9.77;;;3.30;;
29848;SDS011;16728;50.832;5.590;2023-01-09T23:30:40;6.43;;;2.97;;
29848;SDS011;16728;50.832;5.590;2023-01-09T23:33:43;9.80;;;2.97;;
29848;SDS011;16728;50.832;5.590;2023-01-09T23:36:45;7.13;;;2.95;;
29848;SDS011;16728;50.832;5.590;2023-01-09T23:39:47;9.65;;;3.05;;
29848;SDS011;16728;50.832;5.590;2023-01-09T23:42:49;9.10;;;3.17;;
29848;SDS011;16728;50.832;5.590;2023-01-09T23:46:10;9.30;;;2.97;;
29848;SDS011;16728;50.832;5.590;2023-01-09T23:49:15;11.38;;;2.85;;
29848;SDS011;16728;50.832;5.590;2023-01-09T23:52:17;10.23;;;3.15;;
29848;SDS011;16728;50.832;5.590;2023-01-09T23:55:19;13.32;;;3.60;;
29848;SDS011;16728;50.832;5.590;2023-01-09T23:58:21;12.52;;;3.65;;
